createdAt,value
2018-04-19T00:00:04.223Z,8.625
2018-04-19T00:01:04.094Z,8.625
2018-04-19T00:02:03.654Z,8.625
2018-04-19T00:03:03.924Z,8.625
2018-04-19T00:04:04.287Z,8.562
2018-04-19T00:05:04.634Z,8.562
2018-04-19T00:06:04.118Z,8.562
2018-04-19T00:07:03.481Z,8.437
2018-04-19T00:08:03.763Z,8.375
2018-04-19T00:09:04.281Z,8.312
2018-04-19T00:10:03.885Z,8.25
2018-04-19T00:11:04.188Z,8.25
2018-04-19T00:12:03.576Z,8.312
2018-04-19T00:13:03.860Z,8.312
2018-04-19T00:14:03.255Z,8.375
2018-04-19T00:15:03.758Z,8.437
2018-04-19T00:16:04.066Z,8.5
2018-04-19T00:17:03.485Z,8.5
2018-04-19T00:18:04.244Z,8.437
2018-04-19T00:19:03.775Z,8.375
2018-04-19T00:20:04.239Z,8.312
2018-04-19T00:21:03.736Z,8.25
2018-04-19T00:22:04.059Z,8.25
2018-04-19T00:23:04.046Z,8.25
2018-04-19T00:24:03.782Z,8.312
2018-04-19T00:25:03.971Z,8.25
2018-04-19T00:26:03.480Z,8.312
2018-04-19T00:27:04.023Z,8.375
2018-04-19T00:28:03.389Z,8.437
2018-04-19T00:29:03.579Z,8.375
2018-04-19T00:30:04.160Z,8.312
2018-04-19T00:31:03.786Z,8.312
2018-04-19T00:32:04.109Z,8.375
2018-04-19T00:33:03.529Z,8.437
2018-04-19T00:34:03.986Z,8.437
2018-04-19T00:35:03.422Z,8.5
2018-04-19T00:36:03.738Z,8.5
2018-04-19T00:37:04.106Z,8.437
2018-04-19T00:38:03.487Z,8.375
2018-04-19T00:39:04.078Z,8.312
2018-04-19T00:40:04.467Z,8.312
2018-04-19T00:41:03.939Z,8.25
2018-04-19T00:42:03.532Z,8.25
2018-04-19T00:43:03.849Z,8.25
2018-04-19T00:44:03.427Z,8.375
2018-04-19T00:45:03.974Z,8.437
2018-04-19T00:46:03.545Z,8.375
2018-04-19T00:47:03.968Z,8.25
2018-04-19T00:48:03.384Z,8.25
2018-04-19T00:49:03.582Z,8.187
2018-04-19T00:50:03.918Z,8.062
2018-04-19T00:51:04.242Z,8
2018-04-19T00:52:03.481Z,8
2018-04-19T00:53:03.757Z,8.062
2018-04-19T00:54:04.108Z,8.062
2018-04-19T00:55:03.788Z,8
2018-04-19T00:56:03.516Z,8
2018-04-19T00:57:03.929Z,8
2018-04-19T00:58:04.241Z,7.875
2018-04-19T00:59:03.626Z,7.812
2018-04-19T01:00:04.387Z,7.812
2018-04-19T01:01:03.890Z,7.75
2018-04-19T01:02:03.462Z,7.75
2018-04-19T01:03:03.762Z,7.75
2018-04-19T01:04:03.862Z,7.812
2018-04-19T01:05:04.354Z,7.75
2018-04-19T01:06:03.807Z,7.687
2018-04-19T01:07:03.748Z,7.687
2018-04-19T01:08:04.110Z,7.75
2018-04-19T01:09:03.509Z,7.75
2018-04-19T01:10:04.076Z,7.812
2018-04-19T01:11:03.639Z,7.937
2018-04-19T01:12:05.120Z,8
2018-04-19T01:13:03.500Z,8
2018-04-19T01:14:03.956Z,8
2018-04-19T01:15:03.369Z,7.937
2018-04-19T01:16:03.577Z,8
2018-04-19T01:17:03.750Z,8.125
2018-04-19T01:18:05.036Z,8.062
2018-04-19T01:19:04.078Z,8
2018-04-19T01:20:03.529Z,7.937
2018-04-19T01:21:03.960Z,8
2018-04-19T01:22:03.672Z,8
2018-04-19T01:23:03.986Z,7.937
2018-04-19T01:24:03.388Z,7.875
2018-04-19T01:25:03.623Z,7.875
2018-04-19T01:26:04.025Z,7.937
2018-04-19T01:27:03.422Z,7.875
2018-04-19T01:28:03.675Z,7.937
2018-04-19T01:29:03.919Z,7.937
2018-04-19T01:30:03.752Z,7.937
2018-04-19T01:31:03.673Z,7.937
2018-04-19T01:32:03.906Z,8
2018-04-19T01:33:03.316Z,8
2018-04-19T01:34:03.912Z,8.062
2018-04-19T01:35:04.271Z,8.062
2018-04-19T01:36:03.780Z,8.062
2018-04-19T01:37:04.878Z,8.125
2018-04-19T01:38:04.073Z,8.062
2018-04-19T01:39:03.510Z,8.062
2018-04-19T01:40:03.995Z,8.062
2018-04-19T01:41:03.423Z,8.062
2018-04-19T01:42:03.641Z,8.125
2018-04-19T01:43:03.944Z,8.062
2018-04-19T01:44:03.210Z,8.062
2018-04-19T01:45:03.652Z,8.062
2018-04-19T01:46:03.664Z,8.062
2018-04-19T01:47:03.901Z,8.125
2018-04-19T01:48:04.129Z,8.125
2018-04-19T01:49:03.598Z,8.062
2018-04-19T01:50:03.808Z,8.062
2018-04-19T01:51:04.012Z,8
2018-04-19T01:52:04.191Z,7.937
2018-04-19T01:53:03.462Z,7.937
2018-04-19T01:54:03.896Z,7.875
2018-04-19T01:55:04.145Z,7.875
2018-04-19T01:56:03.413Z,7.875
2018-04-19T01:57:03.715Z,7.875
2018-04-19T01:58:03.842Z,7.875
2018-04-19T01:59:04.076Z,7.812
2018-04-19T02:00:03.936Z,7.687
2018-04-19T02:01:03.311Z,7.687
2018-04-19T02:02:03.747Z,7.625
2018-04-19T02:03:04.011Z,7.687
2018-04-19T02:04:03.314Z,7.687
2018-04-19T02:05:03.646Z,7.75
2018-04-19T02:06:03.920Z,7.812
2018-04-19T02:07:04.211Z,7.75
2018-04-19T02:08:03.393Z,7.625
2018-04-19T02:09:04.129Z,7.5
2018-04-19T02:10:03.714Z,7.437
2018-04-19T02:11:03.998Z,7.375
2018-04-19T02:12:04.253Z,7.312
2018-04-19T02:13:03.688Z,7.312
2018-04-19T02:14:03.991Z,7.312
2018-04-19T02:15:03.729Z,7.25
2018-04-19T02:16:03.998Z,7.312
2018-04-19T02:17:04.950Z,7.25
2018-04-19T02:18:03.962Z,7.25
2018-04-19T02:19:04.144Z,7.25
2018-04-19T02:20:03.444Z,7.25
2018-04-19T02:21:03.683Z,7.25
2018-04-19T02:22:03.782Z,7.312
2018-04-19T02:23:03.632Z,7.312
2018-04-19T02:24:03.985Z,7.312
2018-04-19T02:25:03.553Z,7.25
2018-04-19T02:26:03.904Z,7.312
2018-04-19T02:27:04.116Z,7.312
2018-04-19T02:28:03.449Z,7.25
2018-04-19T02:29:03.666Z,7.312
2018-04-19T02:30:04.149Z,7.312
2018-04-19T02:31:03.882Z,7.312
2018-04-19T02:32:03.701Z,7.312
2018-04-19T02:33:04.043Z,7.25
2018-04-19T02:34:03.497Z,7.312
2018-04-19T02:35:03.673Z,7.25
2018-04-19T02:36:03.911Z,7.312
2018-04-19T02:37:04.188Z,7.25
2018-04-19T02:38:03.437Z,7.187
2018-04-19T02:39:04.114Z,7.187
2018-04-19T02:40:03.615Z,7.125
2018-04-19T02:41:03.854Z,7.125
2018-04-19T02:42:04.129Z,7.125
2018-04-19T02:43:03.550Z,7.062
2018-04-19T02:44:03.958Z,7.062
2018-04-19T02:45:04.087Z,6.937
2018-04-19T02:46:03.482Z,6.937
2018-04-19T02:47:03.738Z,6.875
2018-04-19T02:48:03.973Z,6.875
2018-04-19T02:49:04.201Z,6.875
2018-04-19T02:50:03.557Z,6.875
2018-04-19T02:51:03.702Z,6.812
2018-04-19T02:52:04.054Z,6.75
2018-04-19T02:53:03.266Z,6.75
2018-04-19T02:54:03.554Z,6.75
2018-04-19T02:55:03.851Z,6.75
2018-04-19T02:56:03.760Z,6.75
2018-04-19T02:57:04.099Z,6.75
2018-04-19T02:58:03.407Z,6.75
2018-04-19T02:59:03.816Z,6.75
2018-04-19T03:00:04.036Z,6.75
2018-04-19T03:01:04.774Z,6.75
2018-04-19T03:02:03.717Z,6.812
2018-04-19T03:03:04.011Z,7
2018-04-19T03:04:03.367Z,7.187
2018-04-19T03:05:03.766Z,7.187
2018-04-19T03:06:04.049Z,7.187
2018-04-19T03:07:03.359Z,7.125
2018-04-19T03:08:03.735Z,7.062
2018-04-19T03:09:04.401Z,7
2018-04-19T03:10:04.045Z,6.875
2018-04-19T03:11:03.354Z,6.812
2018-04-19T03:12:03.557Z,6.75
2018-04-19T03:13:03.806Z,6.812
2018-04-19T03:14:03.950Z,6.812
2018-04-19T03:15:03.703Z,6.75
2018-04-19T03:16:03.942Z,6.75
2018-04-19T03:17:03.421Z,6.812
2018-04-19T03:18:03.516Z,6.875
2018-04-19T03:19:03.711Z,6.937
2018-04-19T03:20:04.491Z,6.937
2018-04-19T03:21:03.581Z,6.937
2018-04-19T03:22:03.842Z,6.875
2018-04-19T03:23:03.926Z,6.875
2018-04-19T03:24:04.125Z,6.875
2018-04-19T03:25:03.615Z,6.937
2018-04-19T03:26:04.015Z,6.937
2018-04-19T03:27:03.269Z,6.937
2018-04-19T03:28:03.496Z,7
2018-04-19T03:29:03.790Z,7
2018-04-19T03:30:03.389Z,7
2018-04-19T03:31:03.834Z,7.062
2018-04-19T03:32:04.083Z,7
2018-04-19T03:33:03.349Z,7
2018-04-19T03:34:03.522Z,7
2018-04-19T03:35:03.826Z,7.062
2018-04-19T03:36:03.922Z,7.125
2018-04-19T03:37:04.024Z,7.125
2018-04-19T03:38:04.077Z,7.125
2018-04-19T03:39:03.766Z,7.062
2018-04-19T03:40:04.295Z,7
2018-04-19T03:41:03.359Z,6.937
2018-04-19T03:42:03.873Z,6.875
2018-04-19T03:43:03.954Z,6.875
2018-04-19T03:44:04.164Z,6.937
2018-04-19T03:45:05.449Z,6.937
2018-04-19T03:46:04.492Z,6.937
2018-04-19T03:47:03.935Z,6.937
2018-04-19T03:48:03.652Z,6.937
2018-04-19T03:49:03.862Z,6.875
2018-04-19T03:50:03.449Z,6.875
2018-04-19T03:51:03.411Z,6.812
2018-04-19T03:52:03.766Z,6.75
2018-04-19T03:53:04.067Z,6.75
2018-04-19T03:54:03.568Z,6.687
2018-04-19T03:55:03.840Z,6.687
2018-04-19T03:56:04.113Z,6.75
2018-04-19T03:57:03.750Z,6.75
2018-04-19T03:58:03.291Z,6.687
2018-04-19T03:59:03.527Z,6.687
2018-04-19T04:00:03.896Z,6.687
2018-04-19T04:01:04.199Z,6.687
2018-04-19T04:02:04.060Z,6.687
2018-04-19T04:03:04.108Z,6.687
2018-04-19T04:04:03.620Z,6.75
2018-04-19T04:05:03.969Z,6.75
2018-04-19T04:06:03.723Z,6.687
2018-04-19T04:07:03.789Z,6.625
2018-04-19T04:08:04.005Z,6.562
2018-04-19T04:09:04.153Z,6.5
2018-04-19T04:10:03.375Z,6.5
2018-04-19T04:11:03.808Z,6.5
2018-04-19T04:12:04.045Z,6.562
2018-04-19T04:13:03.484Z,6.562
2018-04-19T04:14:03.793Z,6.625
2018-04-19T04:15:04.137Z,6.687
2018-04-19T04:16:03.516Z,6.687
2018-04-19T04:17:03.963Z,6.75
2018-04-19T04:18:03.781Z,6.875
2018-04-19T04:19:03.949Z,7
2018-04-19T04:20:04.280Z,7
2018-04-19T04:21:03.736Z,7.062
2018-04-19T04:22:04.199Z,7.125
2018-04-19T04:23:03.437Z,7.125
2018-04-19T04:24:03.695Z,7.125
2018-04-19T04:25:04.585Z,7.125
2018-04-19T04:26:03.669Z,7.187
2018-04-19T04:27:04.013Z,7.25
2018-04-19T04:28:03.443Z,7.312
2018-04-19T04:29:03.827Z,7.375
2018-04-19T04:30:04.548Z,7.5
2018-04-19T04:31:03.713Z,7.687
2018-04-19T04:32:03.951Z,7.937
2018-04-19T04:33:03.297Z,8.062
2018-04-19T04:34:03.540Z,8.187
2018-04-19T04:35:03.964Z,8.25
2018-04-19T04:36:03.336Z,8.375
2018-04-19T04:37:03.760Z,8.5
2018-04-19T04:38:03.572Z,8.625
2018-04-19T04:39:03.515Z,8.75
2018-04-19T04:40:04.147Z,8.875
2018-04-19T04:41:03.546Z,9
2018-04-19T04:42:03.662Z,9.062
2018-04-19T04:43:03.758Z,9.125
2018-04-19T04:44:04.066Z,9.25
2018-04-19T04:45:03.600Z,9.375
2018-04-19T04:46:04.144Z,9.5
2018-04-19T04:47:04.838Z,9.625
2018-04-19T04:48:03.908Z,9.75
2018-04-19T04:49:03.985Z,9.875
2018-04-19T04:50:03.518Z,10
2018-04-19T04:51:03.388Z,10.187
2018-04-19T04:52:03.679Z,10.312
2018-04-19T04:53:03.904Z,10.437
2018-04-19T04:54:03.956Z,10.687
2018-04-19T04:55:04.193Z,10.875
2018-04-19T04:56:03.652Z,11
2018-04-19T04:57:04.124Z,11.187
2018-04-19T04:58:03.482Z,11.312
2018-04-19T04:59:03.669Z,11.437
2018-04-19T05:00:04.387Z,11.625
2018-04-19T05:01:03.713Z,11.75
2018-04-19T05:02:03.888Z,11.875
2018-04-19T05:03:04.252Z,12.062
2018-04-19T05:04:03.618Z,12.187
2018-04-19T05:05:03.936Z,12.375
2018-04-19T05:06:03.228Z,12.5
2018-04-19T05:07:03.574Z,12.625
2018-04-19T05:08:03.735Z,12.812
2018-04-19T05:09:04.084Z,12.937
2018-04-19T05:10:03.667Z,13.062
2018-04-19T05:11:03.969Z,13.187
2018-04-19T05:12:03.335Z,13.312
2018-04-19T05:13:03.743Z,13.437
2018-04-19T05:14:03.332Z,13.562
2018-04-19T05:15:03.823Z,13.75
2018-04-19T05:16:04.559Z,13.875
2018-04-19T05:17:03.805Z,14
2018-04-19T05:18:04.133Z,14.125
2018-04-19T05:19:03.430Z,14.187
2018-04-19T05:20:03.590Z,14.312
2018-04-19T05:21:03.907Z,14.5
2018-04-19T05:22:04.208Z,14.562
2018-04-19T05:23:03.522Z,14.687
2018-04-19T05:24:03.801Z,14.812
2018-04-19T05:25:03.849Z,15
2018-04-19T05:26:04.116Z,15.187
2018-04-19T05:27:03.733Z,15.375
2018-04-19T05:28:04.145Z,15.437
2018-04-19T05:29:03.957Z,15.562
2018-04-19T05:30:04.241Z,15.687
2018-04-19T05:31:03.622Z,15.875
2018-04-19T05:32:03.909Z,15.937
2018-04-19T05:33:04.116Z,16.125
2018-04-19T05:34:03.390Z,16.187
2018-04-19T05:35:03.725Z,16.187
2018-04-19T05:36:03.982Z,16.312
2018-04-19T05:37:04.249Z,16.5
2018-04-19T05:38:03.571Z,16.625
2018-04-19T05:39:04.102Z,16.812
2018-04-19T05:40:03.761Z,16.937
2018-04-19T05:41:04.113Z,17.062
2018-04-19T05:42:03.567Z,17.187
2018-04-19T05:43:04.023Z,17.25
2018-04-19T05:44:04.190Z,17.375
2018-04-19T05:45:03.911Z,17.5
2018-04-19T05:46:04.025Z,17.625
2018-04-19T05:47:03.423Z,17.625
2018-04-19T05:48:04.224Z,17.687
2018-04-19T05:49:03.496Z,17.687
2018-04-19T05:50:04.461Z,17.875
2018-04-19T05:51:03.452Z,17.937
2018-04-19T05:52:03.810Z,18.062
2018-04-19T05:53:04.241Z,18.187
2018-04-19T05:54:03.403Z,18.375
2018-04-19T05:55:03.620Z,18.562
2018-04-19T05:56:03.885Z,18.5
2018-04-19T05:57:04.145Z,18.625
2018-04-19T05:58:03.483Z,18.75
2018-04-19T05:59:03.790Z,18.937
2018-04-19T06:01:03.384Z,19.25
2018-04-19T06:02:03.819Z,19.375
2018-04-19T06:03:04.129Z,19.5
2018-04-19T06:04:03.435Z,19.687
2018-04-19T06:05:03.798Z,19.812
2018-04-19T06:06:04.096Z,19.812
2018-04-19T06:07:03.345Z,20
2018-04-19T06:08:03.472Z,20.187
2018-04-19T06:09:04.288Z,20.375
2018-04-19T06:10:04.044Z,20.562
2018-04-19T06:11:04.188Z,20.625
2018-04-19T06:12:03.587Z,20.75
2018-04-19T06:13:03.852Z,20.812
2018-04-19T06:14:04.206Z,20.875
2018-04-19T06:15:03.799Z,20.937
2018-04-19T06:16:03.280Z,21.062
2018-04-19T06:17:03.717Z,21.312
2018-04-19T06:18:04.147Z,21.312
2018-04-19T06:19:03.372Z,21.5
2018-04-19T06:20:03.921Z,21.75
2018-04-19T06:21:03.469Z,22.062
2018-04-19T06:22:03.706Z,22.25
2018-04-19T06:23:04.045Z,22.375
2018-04-19T06:24:03.262Z,22.5
2018-04-19T06:25:03.579Z,22.5
2018-04-19T06:26:03.785Z,22.812
2018-04-19T06:27:04.045Z,23
2018-04-19T06:28:03.471Z,23
2018-04-19T06:29:03.712Z,23.187
2018-04-19T06:30:04.101Z,23.312
2018-04-19T06:31:04.153Z,23.437
2018-04-19T06:32:03.406Z,23.625
2018-04-19T06:33:03.738Z,23.812
2018-04-19T06:34:03.620Z,23.937
2018-04-19T06:35:03.937Z,24.062
2018-04-19T06:36:03.325Z,24.125
2018-04-19T06:37:03.553Z,24
2018-04-19T06:38:03.789Z,24.125
2018-04-19T06:39:04.466Z,24.187
2018-04-19T06:40:04.204Z,24.125
2018-04-19T06:41:03.473Z,24.312
2018-04-19T06:42:03.851Z,24.562
2018-04-19T06:43:04.265Z,24.687
2018-04-19T06:44:03.269Z,24.812
2018-04-19T06:45:03.629Z,24.812
2018-04-19T06:46:03.806Z,24.812
2018-04-19T06:47:04.159Z,24.875
2018-04-19T06:48:03.597Z,25.125
2018-04-19T06:49:03.780Z,25.312
2018-04-19T06:50:04.028Z,25.187
2018-04-19T06:51:03.338Z,25.437
2018-04-19T06:52:03.584Z,25.437
2018-04-19T06:53:03.794Z,25.5
2018-04-19T06:54:03.424Z,25.75
2018-04-19T06:55:03.772Z,25.937
2018-04-19T06:56:03.332Z,26.062
2018-04-19T06:57:03.797Z,26.312
2018-04-19T06:58:04.208Z,26.312
2018-04-19T06:59:03.410Z,26.437
2018-04-19T07:00:03.754Z,26.687
2018-04-19T07:01:04.421Z,26.437
2018-04-19T07:02:03.882Z,26.437
2018-04-19T07:03:04.109Z,26.562
2018-04-19T07:04:03.410Z,26.75
2018-04-19T07:05:03.609Z,26.687
2018-04-19T07:06:03.869Z,26.562
2018-04-19T07:07:04.106Z,26.562
2018-04-19T07:08:03.377Z,26.625
2018-04-19T07:09:04.259Z,27
2018-04-19T07:10:03.769Z,27.062
2018-04-19T07:11:03.974Z,27
2018-04-19T07:12:04.295Z,27.312
2018-04-19T07:13:03.521Z,27.375
2018-04-19T07:14:03.969Z,27.375
2018-04-19T07:15:03.340Z,27.5
2018-04-19T07:16:03.639Z,27.625
2018-04-19T07:17:03.302Z,27.687
2018-04-19T07:18:03.841Z,27.625
2018-04-19T07:19:04.073Z,27.5
2018-04-19T07:20:03.679Z,27.5
2018-04-19T07:21:03.940Z,27.375
2018-04-19T07:22:03.652Z,27.625
2018-04-19T07:23:03.965Z,27.75
2018-04-19T07:24:03.248Z,28.062
2018-04-19T07:25:03.528Z,28.062
2018-04-19T07:26:03.763Z,27.812
2018-04-19T07:27:04.232Z,28.187
2018-04-19T07:28:03.863Z,28.125
2018-04-19T07:29:04.294Z,28.25
2018-04-19T07:30:04.871Z,28.125
2018-04-19T07:31:04.220Z,28.187
2018-04-19T07:32:03.702Z,28.375
2018-04-19T07:33:04.220Z,28.062
2018-04-19T07:34:03.752Z,28.062
2018-04-19T07:35:04.216Z,28
2018-04-19T07:36:03.943Z,28.062
2018-04-19T07:37:04.084Z,28.187
2018-04-19T07:38:03.535Z,28.437
2018-04-19T07:39:04.628Z,28.375
2018-04-19T07:40:04.182Z,28.562
2018-04-19T07:41:04.048Z,28.812
2018-04-19T07:42:03.725Z,28.812
2018-04-19T07:43:04.175Z,28.875
2018-04-19T07:44:03.922Z,28.562
2018-04-19T07:45:05.199Z,28.187
2018-04-19T07:46:03.654Z,28.312
2018-04-19T07:47:04.025Z,28.625
2018-04-19T07:48:04.011Z,28.937
2018-04-19T07:49:03.510Z,29.062
2018-04-19T07:50:04.286Z,29.25
2018-04-19T07:51:03.585Z,29.312
2018-04-19T07:52:03.895Z,29.125
2018-04-19T07:53:04.064Z,29.187
2018-04-19T07:54:04.116Z,29.312
2018-04-19T07:55:03.340Z,29.625
2018-04-19T07:56:03.519Z,30.062
2018-04-19T07:57:03.685Z,30
2018-04-19T07:58:03.996Z,30.062
2018-04-19T07:59:03.257Z,29.875
2018-04-19T08:00:03.829Z,29.687
2018-04-19T08:01:03.587Z,29.625
2018-04-19T08:02:04.045Z,29.375
2018-04-19T08:03:03.310Z,29.375
2018-04-19T08:04:03.664Z,29.75
2018-04-19T08:05:04.080Z,29.937
2018-04-19T08:06:03.243Z,29.5
2018-04-19T08:07:03.720Z,29.437
2018-04-19T08:08:04.237Z,29.312
2018-04-19T08:09:03.932Z,29
2018-04-19T08:10:03.507Z,29.062
2018-04-19T08:11:03.882Z,29.312
2018-04-19T08:12:03.299Z,29.187
2018-04-19T08:13:03.600Z,29.187
2018-04-19T08:14:03.865Z,29.625
2018-04-19T08:15:03.311Z,30
2018-04-19T08:16:03.760Z,30
2018-04-19T08:17:04.317Z,29.937
2018-04-19T08:18:03.410Z,29.875
2018-04-19T08:19:03.621Z,30.062
2018-04-19T08:20:03.935Z,29.875
2018-04-19T08:21:03.298Z,30
2018-04-19T08:22:03.518Z,29.625
2018-04-19T08:23:03.822Z,29.875
2018-04-19T08:24:03.996Z,29.375
2018-04-19T08:25:03.524Z,29.062
2018-04-19T08:26:04.120Z,29.25
2018-04-19T08:27:03.945Z,29.687
2018-04-19T08:28:04.131Z,29.812
2018-04-19T08:29:04.122Z,29.5
2018-04-19T08:30:03.952Z,29.125
2018-04-19T08:31:04.102Z,28.937
2018-04-19T08:32:03.487Z,29.312
2018-04-19T08:33:03.980Z,29.5
2018-04-19T08:34:03.329Z,29.75
2018-04-19T08:35:03.529Z,30.062
2018-04-19T08:36:03.699Z,29.937
2018-04-19T08:37:03.959Z,30
2018-04-19T08:38:03.311Z,30.062
2018-04-19T08:39:04.728Z,30.125
2018-04-19T08:40:04.111Z,30.187
2018-04-19T08:41:04.116Z,30.187
2018-04-19T08:42:03.479Z,30.437
2018-04-19T08:43:03.796Z,30.75
2018-04-19T08:44:04.047Z,30.75
2018-04-19T08:45:03.769Z,30.187
2018-04-19T08:46:03.790Z,30.437
2018-04-19T08:47:03.226Z,30.437
2018-04-19T08:48:03.655Z,30.437
2018-04-19T08:49:03.963Z,30.437
2018-04-19T08:50:04.209Z,30.625
2018-04-19T08:51:03.732Z,30.75
2018-04-19T08:52:03.956Z,30.812
2018-04-19T08:53:03.348Z,30.75
2018-04-19T08:54:04.150Z,30.812
2018-04-19T08:55:03.468Z,31.187
2018-04-19T08:56:03.761Z,31.312
2018-04-19T08:57:04.140Z,31
2018-04-19T08:58:03.523Z,30.875
2018-04-19T08:59:03.817Z,30.937
2018-04-19T09:00:04.386Z,30.937
2018-04-19T09:01:03.889Z,31.25
2018-04-19T09:02:04.149Z,31.312
2018-04-19T09:03:03.491Z,31.312
2018-04-19T09:04:03.731Z,30.437
2018-04-19T09:05:04.161Z,30.812
2018-04-19T09:06:03.330Z,31
2018-04-19T09:07:03.537Z,30.937
2018-04-19T09:08:03.808Z,31.125
2018-04-19T09:09:04.439Z,31.062
2018-04-19T09:10:04.041Z,30.687
2018-04-19T09:11:03.861Z,31.062
2018-04-19T09:12:03.248Z,31.312
2018-04-19T09:13:03.881Z,31.312
2018-04-19T09:14:03.907Z,31.562
2018-04-19T09:15:04.323Z,31.437
2018-04-19T09:16:03.522Z,31.312
2018-04-19T09:17:03.931Z,31.062
2018-04-19T09:18:03.553Z,30.937
2018-04-19T09:19:03.677Z,31.062
2018-04-19T09:20:04.175Z,31.125
2018-04-19T09:21:03.929Z,30.812
2018-04-19T09:22:03.317Z,30.937
2018-04-19T09:23:03.927Z,30.875
2018-04-19T09:24:03.709Z,31.125
2018-04-19T09:25:03.954Z,31
2018-04-19T09:26:04.285Z,31
2018-04-19T09:27:03.655Z,30.812
2018-04-19T09:28:03.947Z,30.187
2018-04-19T09:29:03.229Z,29.562
2018-04-19T09:30:03.578Z,29.687
2018-04-19T09:31:03.487Z,30.25
2018-04-19T09:32:03.803Z,30.625
2018-04-19T09:33:04.186Z,30.625
2018-04-19T09:34:03.477Z,30.562
2018-04-19T09:35:03.354Z,30.75
2018-04-19T09:36:03.960Z,30.875
2018-04-19T09:37:04.193Z,30.625
2018-04-19T09:38:03.477Z,30.687
2018-04-19T09:39:04.248Z,31
2018-04-19T09:40:04.274Z,31.062
2018-04-19T09:41:03.708Z,31.125
2018-04-19T09:42:04.222Z,31.062
2018-04-19T09:43:03.449Z,31.187
2018-04-19T09:44:03.796Z,31.375
2018-04-19T09:45:04.035Z,31
2018-04-19T09:46:03.468Z,30.625
2018-04-19T09:47:03.951Z,30.937
2018-04-19T09:48:03.549Z,31
2018-04-19T09:49:03.691Z,30.875
2018-04-19T09:50:04.081Z,30.5
2018-04-19T09:51:03.456Z,30.5
2018-04-19T09:52:03.633Z,30.375
2018-04-19T09:53:04.028Z,30.312
2018-04-19T09:54:03.376Z,30.375
2018-04-19T09:55:03.713Z,30.625
2018-04-19T09:56:03.906Z,30.375
2018-04-19T09:57:04.182Z,30.625
2018-04-19T09:58:03.504Z,30.625
2018-04-19T09:59:03.815Z,30.812
2018-04-19T10:00:05.049Z,30.812
2018-04-19T10:01:03.451Z,30.875
2018-04-19T10:02:03.730Z,30.187
2018-04-19T10:03:04.033Z,30.562
2018-04-19T10:04:03.389Z,30.687
2018-04-19T10:05:03.718Z,30.562
2018-04-19T10:06:04.037Z,30.812
2018-04-19T10:07:03.358Z,30.937
2018-04-19T10:08:03.634Z,30.75
2018-04-19T10:09:04.421Z,30.75
2018-04-19T10:10:03.965Z,30.562
2018-04-19T10:11:04.219Z,30.625
2018-04-19T10:12:03.446Z,30.75
2018-04-19T10:13:06.699Z,30.25
2018-04-19T10:14:03.580Z,30.437
2018-04-19T10:15:03.871Z,30.937
2018-04-19T10:16:03.710Z,31.125
2018-04-19T10:17:04.197Z,30.937
2018-04-19T10:18:03.591Z,30.75
2018-04-19T10:19:03.762Z,30.687
2018-04-19T10:20:03.668Z,30.562
2018-04-19T10:21:04.045Z,30.5
2018-04-19T10:22:03.405Z,30.437
2018-04-19T10:23:03.901Z,30.687
2018-04-19T10:24:04.169Z,31
2018-04-19T10:25:03.449Z,31.375
2018-04-19T10:26:03.791Z,31.312
2018-04-19T10:27:04.154Z,30.687
2018-04-19T10:28:03.379Z,30.125
2018-04-19T10:29:03.526Z,30.375
2018-04-19T10:30:04.001Z,30.687
2018-04-19T10:31:03.975Z,30.812
2018-04-19T10:32:04.195Z,30.687
2018-04-19T10:33:03.505Z,30.687
2018-04-19T10:34:03.628Z,30.812
2018-04-19T10:35:03.808Z,30.937
2018-04-19T10:36:03.917Z,31
2018-04-19T10:37:04.276Z,30.937
2018-04-19T10:38:03.462Z,31
2018-04-19T10:39:04.197Z,30.75
2018-04-19T10:40:03.803Z,30.937
2018-04-19T10:41:04.266Z,30.875
2018-04-19T10:42:03.760Z,30.812
2018-04-19T10:43:04.138Z,30.687
2018-04-19T10:44:03.906Z,30.562
2018-04-19T10:45:04.160Z,30.437
2018-04-19T10:46:03.503Z,30.25
2018-04-19T10:47:03.862Z,30.062
2018-04-19T10:48:03.789Z,29.937
2018-04-19T10:49:04.082Z,30.25
2018-04-19T10:50:03.619Z,30.437
2018-04-19T10:51:04.145Z,30.75
2018-04-19T10:52:03.319Z,30.687
2018-04-19T10:53:03.731Z,30.875
2018-04-19T10:54:04.056Z,30.812
2018-04-19T10:55:03.425Z,30.687
2018-04-19T10:56:03.594Z,30.75
2018-04-19T10:57:03.815Z,30.375
2018-04-19T10:58:04.054Z,30.25
2018-04-19T10:59:03.379Z,30.125
2018-04-19T11:00:04.095Z,30.312
2018-04-19T11:01:03.872Z,30.437
2018-04-19T11:02:04.114Z,30.625
2018-04-19T11:03:03.391Z,30.562
2018-04-19T11:04:03.712Z,30.875
2018-04-19T11:05:04.120Z,31.375
2018-04-19T11:06:03.588Z,31.5
2018-04-19T11:07:03.869Z,31.375
2018-04-19T11:08:04.140Z,31.375
2018-04-19T11:09:03.753Z,31.125
2018-04-19T11:10:04.248Z,30.562
2018-04-19T11:11:03.581Z,30.25
2018-04-19T11:12:03.909Z,30.125
2018-04-19T11:13:04.115Z,30
2018-04-19T11:14:03.438Z,30.062
2018-04-19T11:15:03.739Z,30.25
2018-04-19T11:16:03.980Z,30.312
2018-04-19T11:17:04.309Z,30.125
2018-04-19T11:18:03.820Z,30.187
2018-04-19T11:19:04.083Z,30.312
2018-04-19T11:20:03.461Z,30.437
2018-04-19T11:21:03.870Z,30.75
2018-04-19T11:22:03.219Z,30.875
2018-04-19T11:23:03.585Z,31.062
2018-04-19T11:24:03.995Z,30.75
2018-04-19T11:25:03.349Z,30.562
2018-04-19T11:26:03.677Z,30.5
2018-04-19T11:27:04.070Z,30.5
2018-04-19T11:28:03.658Z,30.625
2018-04-19T11:29:03.861Z,30.937
2018-04-19T11:30:03.267Z,30.875
2018-04-19T11:31:03.731Z,31.062
2018-04-19T11:32:04.153Z,31
2018-04-19T11:33:04.625Z,31.187
2018-04-19T11:34:03.569Z,31.312
2018-04-19T11:35:03.804Z,31.187
2018-04-19T11:36:04.103Z,31.25
2018-04-19T11:37:03.418Z,31.187
2018-04-19T11:38:03.690Z,30.562
2018-04-19T11:39:03.522Z,30.312
2018-04-19T11:40:03.983Z,29.937
2018-04-19T11:41:03.962Z,30.125
2018-04-19T11:42:03.955Z,30.187
2018-04-19T11:43:04.206Z,29.812
2018-04-19T11:44:03.586Z,29.687
2018-04-19T11:45:03.895Z,29.437
2018-04-19T11:46:04.266Z,29.75
2018-04-19T11:47:03.445Z,29.875
2018-04-19T11:48:03.702Z,30.062
2018-04-19T11:49:03.897Z,30.125
2018-04-19T11:50:04.079Z,30.125
2018-04-19T11:51:03.335Z,30.062
2018-04-19T11:52:03.684Z,30.125
2018-04-19T11:53:03.946Z,30.125
2018-04-19T11:54:04.220Z,30.125
2018-04-19T11:55:03.299Z,29.812
2018-04-19T11:56:03.642Z,29.812
2018-04-19T11:57:04.173Z,30.125
2018-04-19T11:58:03.420Z,30.187
2018-04-19T11:59:03.692Z,30.312
2018-04-19T12:00:04.076Z,30.312
2018-04-19T12:01:03.266Z,30.25
2018-04-19T12:02:03.628Z,30.062
2018-04-19T12:03:03.943Z,29.75
2018-04-19T12:04:03.448Z,29.5
2018-04-19T12:05:03.673Z,29.375
2018-04-19T12:06:03.891Z,28.875
2018-04-19T12:07:04.083Z,28.875
2018-04-19T12:08:03.412Z,28.562
2018-04-19T12:09:03.907Z,28.687
2018-04-19T12:10:03.585Z,28.687
2018-04-19T12:11:03.885Z,28.437
2018-04-19T12:12:03.387Z,28.437
2018-04-19T12:13:03.709Z,28.062
2018-04-19T12:14:03.979Z,27.812
2018-04-19T12:15:03.522Z,27.687
2018-04-19T12:16:03.728Z,27.687
2018-04-19T12:17:04.186Z,27.75
2018-04-19T12:18:03.527Z,27.5
2018-04-19T12:19:03.742Z,27.312
2018-04-19T12:20:03.878Z,27.437
2018-04-19T12:21:04.082Z,27.312
2018-04-19T12:22:03.258Z,27.375
2018-04-19T12:23:03.596Z,27.375
2018-04-19T12:24:03.787Z,27.312
2018-04-19T12:25:04.039Z,27.187
2018-04-19T12:26:03.226Z,27.187
2018-04-19T12:27:03.705Z,27.375
2018-04-19T12:28:04.197Z,27.375
2018-04-19T12:29:03.423Z,27.312
2018-04-19T12:30:03.775Z,27.187
2018-04-19T12:31:03.390Z,27.187
2018-04-19T12:32:03.773Z,27.25
2018-04-19T12:33:03.721Z,26.937
2018-04-19T12:34:03.720Z,26.937
2018-04-19T12:35:04.044Z,26.812
2018-04-19T12:36:03.452Z,26.687
2018-04-19T12:37:03.736Z,26.5
2018-04-19T12:38:03.922Z,26.375
2018-04-19T12:39:04.479Z,26.437
2018-04-19T12:40:04.337Z,26.5
2018-04-19T12:41:03.574Z,26.75
2018-04-19T12:42:03.790Z,26.562
2018-04-19T12:43:04.087Z,26.25
2018-04-19T12:44:03.289Z,26.25
2018-04-19T12:45:04.105Z,26.375
2018-04-19T12:46:03.322Z,26.437
2018-04-19T12:47:03.565Z,26.375
2018-04-19T12:48:03.796Z,26.312
2018-04-19T12:49:04.091Z,26.375
2018-04-19T12:50:03.691Z,26.5
2018-04-19T12:51:04.040Z,26.437